Strona główna
METAR-TAF:

METAR-TAF

Lotnisko :

Air_Force_Base

Plattsburgh, Nowy Jork, Stany Zjednoczone

Szerokość geograficzna: 44-39N, Długość geograficzna: 073-28W, wysokość: 72 m

Aktualna obserwacja pogody

Raport powstał 43 minut temu, godzina 15:53 UTC
Cisza
Temperatura 0°C
Wilgotność 74%
Ciśnienie 1002 hPa
Widzialność: 16.1 km
Mało chmury na wysokości 2600 ft
Zachmurzenie całkowite na wysokości 3600 ft

METAR: KPBG 221553Z AUTO 00000KT 10SM FEW026 OVC036 00/M04 A2960 RMK AO2 SLP028 T00001039

czas: 11:36 (16:36 UTC)

Prognoza

Raport powstał 1 godzina i 32 minut temu, godzina 15:04 UTC
Prognoza ważna od 22 godzina 15 UTC do 23 godzina 12 UTC
Wiatr 3 kt z kierunków zmiennych
Widzialność: 9.7 km
Zachmurzenie całkowite na wysokości 2500 ft
słaby przelotny opad śniegu
Od 22 godzina 1800 UTC
Wiatr 8 kt od północny zachód
Widzialność: 10 km
Przerywane chmury na wysokości 4500 ft

TAF: KPBG 221504Z 2215/2312 VRB03KT 6SM -SHSN OVC025 FM221800 32008KT P6SM BKN045

Obserwacja i prognoza pogody dla ponad 4000 lotnisk (raport METAR i TAF).

Dostępne stacje oznaczono żółtymi i czerwonymi punktami na mapie.

Najedź kursorem aby zobaczyć nazwę stacji.

Kliknij aby zobaczyć obserwacje i prognozy pogody.

Aby zmienić mapę: kliknij na zielony przycisk z czarnym krzyżykiem, aby powiększyć; na zielony przycisk z myślnikiem, aby pomniejszyć; na zielone strzałki, aby przejść do map sąsiednich.


METAR-TAF: